createdAt,value
2019-05-10T00:00:46.003Z,12.67
2019-05-10T00:01:46.017Z,12.70
2019-05-10T00:02:45.999Z,12.66
2019-05-10T00:03:46.007Z,12.67
2019-05-10T00:04:46.015Z,12.69
2019-05-10T00:05:46.021Z,12.62
2019-05-10T00:06:46.035Z,12.71
2019-05-10T00:07:46.042Z,12.73
2019-05-10T00:08:46.046Z,12.67
2019-05-10T00:09:46.060Z,12.63
2019-05-10T00:10:46.051Z,12.69
2019-05-10T00:11:49.060Z,12.63
2019-05-10T00:12:46.073Z,12.63
2019-05-10T00:13:46.084Z,12.69
2019-05-10T00:14:46.089Z,12.66
2019-05-10T00:15:46.095Z,12.73
2019-05-10T00:16:46.098Z,12.66
2019-05-10T00:17:46.106Z,12.66
2019-05-10T00:18:46.118Z,12.67
2019-05-10T00:19:46.116Z,12.67
2019-05-10T00:20:46.145Z,12.70
2019-05-10T00:21:46.135Z,12.56
2019-05-10T00:22:46.142Z,12.61
2019-05-10T00:23:46.139Z,12.70
2019-05-10T00:25:02.449Z,12.67
2019-05-10T00:25:46.176Z,12.58
2019-05-10T00:26:46.171Z,12.62
2019-05-10T00:27:46.167Z,12.56
2019-05-10T00:28:46.181Z,12.73
2019-05-10T00:29:46.189Z,12.62
2019-05-10T00:30:46.200Z,12.71
2019-05-10T00:31:46.210Z,12.67
2019-05-10T00:32:46.212Z,12.74
2019-05-10T00:33:46.222Z,12.62
2019-05-10T00:34:46.229Z,12.61
2019-05-10T00:35:46.229Z,12.69
2019-05-10T00:36:46.244Z,12.59
2019-05-10T00:37:46.248Z,12.66
2019-05-10T00:38:46.261Z,12.66
2019-05-10T00:39:46.260Z,12.71
2019-05-10T00:40:46.267Z,12.62
2019-05-10T00:41:46.268Z,12.51
2019-05-10T00:42:46.480Z,12.59
2019-05-10T00:43:46.287Z,12.46
2019-05-10T00:44:46.295Z,12.58
2019-05-10T00:45:46.307Z,12.61
2019-05-10T00:46:46.305Z,12.56
2019-05-10T00:47:46.312Z,12.49
2019-05-10T00:48:46.315Z,12.54
2019-05-10T00:49:46.330Z,12.59
2019-05-10T00:50:46.338Z,12.54
2019-05-10T00:51:46.335Z,12.40
2019-05-10T00:52:46.334Z,12.44
2019-05-10T00:53:46.353Z,12.51
2019-05-10T00:54:46.357Z,12.51
2019-05-10T00:55:46.363Z,12.43
2019-05-10T00:56:46.386Z,12.48
2019-05-10T00:57:46.380Z,12.46
2019-05-10T00:58:46.382Z,12.44
2019-05-10T00:59:46.419Z,12.43
2019-05-10T01:00:46.406Z,12.44
2019-05-10T01:01:46.408Z,12.44
2019-05-10T01:02:46.418Z,12.41
2019-05-10T01:03:46.417Z,12.43
2019-05-10T01:04:46.424Z,12.37
2019-05-10T01:05:46.427Z,12.37
2019-05-10T01:06:46.435Z,12.37
2019-05-10T01:07:46.445Z,12.40
2019-05-10T01:08:46.449Z,12.43
2019-05-10T01:09:46.464Z,12.38
2019-05-10T01:10:46.456Z,12.31
2019-05-10T01:11:46.472Z,12.30
2019-05-10T01:12:46.474Z,12.23
2019-05-10T01:13:46.499Z,12.25
2019-05-10T01:14:46.499Z,12.25
2019-05-10T01:15:46.999Z,12.23
2019-05-10T01:16:46.510Z,12.19
2019-05-10T01:17:46.526Z,12.18
2019-05-10T01:18:46.538Z,12.21
2019-05-10T01:19:46.525Z,12.15
2019-05-10T01:20:46.530Z,12.05
2019-05-10T01:21:46.545Z,12.01
2019-05-10T01:22:46.541Z,12.12
2019-05-10T01:23:46.570Z,12.04
2019-05-10T01:24:46.557Z,12.04
2019-05-10T01:25:46.558Z,12.04
2019-05-10T01:26:46.586Z,11.97
2019-05-10T01:27:46.576Z,11.88
2019-05-10T01:28:46.581Z,11.90
2019-05-10T01:29:46.583Z,11.94
2019-05-10T01:30:46.609Z,11.84
2019-05-10T01:31:46.600Z,11.79
2019-05-10T01:32:46.608Z,11.81
2019-05-10T01:33:46.677Z,11.81
2019-05-10T01:34:46.614Z,11.78
2019-05-10T01:35:46.622Z,11.77
2019-05-10T01:36:46.635Z,11.84
2019-05-10T01:37:46.636Z,11.78
2019-05-10T01:38:46.687Z,11.78
2019-05-10T01:39:46.644Z,11.75
2019-05-10T01:40:46.663Z,11.74
2019-05-10T01:41:46.667Z,11.75
2019-05-10T01:42:46.673Z,11.74
2019-05-10T01:43:46.661Z,11.77
2019-05-10T01:44:46.678Z,11.78
2019-05-10T01:45:46.681Z,11.74
2019-05-10T01:46:46.693Z,11.67
2019-05-10T01:47:46.700Z,11.64
2019-05-10T01:48:46.702Z,11.62
2019-05-10T01:49:46.715Z,11.67
2019-05-10T01:50:46.716Z,11.69
2019-05-10T01:51:46.789Z,11.60
2019-05-10T01:52:46.724Z,11.57
2019-05-10T01:53:46.736Z,11.66
2019-05-10T01:54:46.738Z,11.56
2019-05-10T01:55:52.146Z,11.66
2019-05-10T01:56:46.749Z,11.59
2019-05-10T01:57:46.783Z,11.60
2019-05-10T01:58:46.767Z,11.63
2019-05-10T01:59:46.776Z,11.59
2019-05-10T02:00:46.775Z,11.59
2019-05-10T02:01:46.778Z,11.63
2019-05-10T02:02:46.786Z,11.59
2019-05-10T02:03:46.793Z,11.69
2019-05-10T02:04:46.797Z,11.60
2019-05-10T02:05:46.820Z,11.67
2019-05-10T02:06:46.812Z,11.72
2019-05-10T02:07:46.826Z,11.70
2019-05-10T02:08:46.826Z,11.72
2019-05-10T02:09:46.832Z,11.67
2019-05-10T02:10:46.843Z,11.74
2019-05-10T02:11:46.844Z,11.67
2019-05-10T02:12:46.851Z,11.72
2019-05-10T02:13:46.866Z,11.60
2019-05-10T02:14:46.861Z,11.64
2019-05-10T02:15:46.869Z,11.56
2019-05-10T02:16:46.875Z,11.54
2019-05-10T02:17:46.881Z,11.56
2019-05-10T02:18:46.893Z,11.46
2019-05-10T02:19:46.898Z,11.48
2019-05-10T02:20:46.901Z,11.51
2019-05-10T02:21:46.910Z,11.42
2019-05-10T02:22:46.956Z,11.48
2019-05-10T02:23:46.917Z,11.51
2019-05-10T02:24:46.941Z,11.51
2019-05-10T02:25:46.941Z,11.49
2019-05-10T02:26:46.939Z,11.48
2019-05-10T02:27:46.941Z,11.42
2019-05-10T02:28:46.944Z,11.42
2019-05-10T02:29:46.958Z,11.41
2019-05-10T02:30:46.965Z,11.35
2019-05-10T02:31:46.978Z,11.30
2019-05-10T02:32:46.975Z,11.30
2019-05-10T02:33:46.987Z,11.28
2019-05-10T02:34:47.077Z,11.23
2019-05-10T02:35:46.992Z,11.27
2019-05-10T02:36:46.998Z,11.35
2019-05-10T02:37:47.005Z,11.27
2019-05-10T02:38:47.021Z,11.26
2019-05-10T02:39:47.014Z,11.16
2019-05-10T02:40:47.025Z,11.20
2019-05-10T02:41:47.037Z,11.12
2019-05-10T02:42:47.062Z,11.19
2019-05-10T02:43:47.042Z,11.12
2019-05-10T02:44:47.046Z,11.06
2019-05-10T02:45:47.055Z,11.08
2019-05-10T02:46:47.128Z,11.06
2019-05-10T02:47:47.077Z,11.05
2019-05-10T02:48:47.092Z,11.08
2019-05-10T02:49:47.077Z,11.12
2019-05-10T02:50:47.077Z,11.12
2019-05-10T02:51:47.088Z,11.11
2019-05-10T02:52:47.091Z,11.05
2019-05-10T02:53:47.099Z,11.03
2019-05-10T02:54:47.107Z,11.13
2019-05-10T02:55:47.111Z,11.09
2019-05-10T02:56:47.115Z,11.12
2019-05-10T02:57:47.122Z,11.02
2019-05-10T02:58:47.138Z,11.11
2019-05-10T02:59:47.138Z,11.11
2019-05-10T03:00:47.147Z,11.01
2019-05-10T03:01:47.147Z,10.98
2019-05-10T03:02:47.140Z,10.98
2019-05-10T03:03:47.156Z,10.99
2019-05-10T03:04:47.168Z,10.98
2019-05-10T03:05:48.678Z,11.03
2019-05-10T03:06:47.175Z,11.01
2019-05-10T03:07:47.176Z,11.02
2019-05-10T03:08:47.201Z,11.03
2019-05-10T03:09:47.192Z,11.01
2019-05-10T03:10:47.191Z,11.02
2019-05-10T03:11:47.244Z,11.02
2019-05-10T03:12:47.217Z,11.03
2019-05-10T03:13:47.208Z,11.01
2019-05-10T03:14:47.217Z,11.01
2019-05-10T03:15:47.217Z,10.90
2019-05-10T03:16:47.224Z,10.91
2019-05-10T03:17:47.242Z,10.98
2019-05-10T03:18:47.241Z,11.01
2019-05-10T03:19:47.246Z,11.02
2019-05-10T03:20:47.255Z,10.98
2019-05-10T03:21:47.257Z,10.93
2019-05-10T03:22:47.271Z,10.88
2019-05-10T03:23:47.271Z,10.93
2019-05-10T03:24:47.278Z,10.86
2019-05-10T03:25:47.291Z,11.01
2019-05-10T03:26:50.992Z,10.90
2019-05-10T03:27:47.301Z,10.91
2019-05-10T03:28:47.295Z,11.05
2019-05-10T03:29:47.300Z,10.95
2019-05-10T03:30:47.310Z,10.90
2019-05-10T03:31:47.316Z,10.88
2019-05-10T03:32:47.344Z,10.87
2019-05-10T03:33:54.837Z,10.90
2019-05-10T03:34:47.345Z,10.84
2019-05-10T03:35:47.357Z,10.87
2019-05-10T03:36:47.343Z,10.88
2019-05-10T03:37:47.349Z,10.93
2019-05-10T03:38:47.353Z,10.91
2019-05-10T03:39:47.388Z,10.88
2019-05-10T03:40:47.374Z,10.94
2019-05-10T03:41:47.371Z,10.93
2019-05-10T03:42:47.378Z,10.95
2019-05-10T03:43:47.373Z,10.87
2019-05-10T03:44:47.389Z,10.87
2019-05-10T03:45:47.405Z,10.94
2019-05-10T03:46:47.398Z,11.01
2019-05-10T03:47:47.406Z,10.91
2019-05-10T03:48:47.428Z,10.88
2019-05-10T03:49:47.416Z,10.99
2019-05-10T03:50:47.418Z,10.93
2019-05-10T03:51:47.472Z,11.01
2019-05-10T03:52:51.710Z,11.03
2019-05-10T03:53:47.512Z,10.98
2019-05-10T03:54:47.456Z,10.98
2019-05-10T03:55:47.456Z,10.98
2019-05-10T03:56:47.457Z,10.94
2019-05-10T03:57:47.454Z,10.91
2019-05-10T03:58:47.468Z,10.95
2019-05-10T03:59:47.469Z,10.86
2019-05-10T04:00:47.484Z,10.95
2019-05-10T04:01:47.486Z,10.93
2019-05-10T04:02:47.490Z,10.91
2019-05-10T04:03:47.501Z,11.02
2019-05-10T04:04:47.501Z,10.99
2019-05-10T04:05:47.520Z,10.99
2019-05-10T04:06:47.509Z,10.93
2019-05-10T04:07:47.521Z,11.01
2019-05-10T04:08:47.531Z,11.03
2019-05-10T04:09:47.527Z,11.01
2019-05-10T04:10:47.559Z,11.06
2019-05-10T04:11:47.541Z,11.05
2019-05-10T04:12:47.543Z,10.95
2019-05-10T04:13:47.551Z,11.06
2019-05-10T04:14:47.559Z,11.03
2019-05-10T04:15:47.567Z,11.02
2019-05-10T04:16:47.569Z,11.06
2019-05-10T04:17:50.179Z,11.03
2019-05-10T04:18:47.594Z,11.09
2019-05-10T04:19:47.577Z,11.05
2019-05-10T04:20:47.595Z,11.09
2019-05-10T04:21:47.670Z,11.12
2019-05-10T04:22:47.609Z,11.05
2019-05-10T04:23:47.639Z,11.09
2019-05-10T04:24:47.610Z,11.05
2019-05-10T04:25:47.619Z,10.99
2019-05-10T04:26:47.624Z,11.05
2019-05-10T04:27:47.634Z,11.05
2019-05-10T04:28:47.640Z,11.02
2019-05-10T04:29:47.655Z,10.99
2019-05-10T04:30:47.652Z,11.08
2019-05-10T04:31:47.658Z,11.02
2019-05-10T04:32:47.663Z,11.05
2019-05-10T04:33:47.664Z,11.01
2019-05-10T04:34:47.679Z,11.02
2019-05-10T04:35:47.680Z,11.09
2019-05-10T04:36:47.690Z,11.01
2019-05-10T04:37:47.691Z,11.03
2019-05-10T04:38:47.701Z,11.08
2019-05-10T04:39:47.708Z,11.08
2019-05-10T04:40:47.706Z,11.13
2019-05-10T04:41:47.732Z,11.08
2019-05-10T04:42:47.730Z,11.05
2019-05-10T04:43:47.726Z,11.06
2019-05-10T04:44:47.725Z,11.05
2019-05-10T04:45:47.741Z,11.05
2019-05-10T04:46:47.754Z,11.12
2019-05-10T04:47:47.765Z,11.13
2019-05-10T04:48:47.751Z,11.03
2019-05-10T04:49:47.758Z,11.09
2019-05-10T04:50:49.392Z,11.12
2019-05-10T04:51:47.769Z,11.03
2019-05-10T04:52:47.781Z,11.12
2019-05-10T04:53:47.789Z,11.20
2019-05-10T04:54:47.783Z,11.20
2019-05-10T04:55:47.801Z,11.09
2019-05-10T04:56:47.805Z,11.13
2019-05-10T04:57:50.963Z,11.13
2019-05-10T04:58:47.812Z,11.16
2019-05-10T04:59:47.821Z,11.26
2019-05-10T05:00:47.830Z,11.19
2019-05-10T05:01:47.842Z,11.23
2019-05-10T05:02:47.845Z,11.20
2019-05-10T05:03:47.850Z,11.17
2019-05-10T05:04:47.853Z,11.21
2019-05-10T05:05:47.859Z,11.28
2019-05-10T05:06:47.862Z,11.26
2019-05-10T05:07:47.857Z,11.23
2019-05-10T05:08:47.871Z,11.24
2019-05-10T05:09:47.882Z,11.27
2019-05-10T05:10:47.887Z,11.30
2019-05-10T05:11:47.909Z,11.30
2019-05-10T05:12:47.920Z,11.26
2019-05-10T05:13:47.903Z,11.26
2019-05-10T05:14:47.906Z,11.30
2019-05-10T05:15:47.959Z,11.24
2019-05-10T05:16:47.924Z,11.33
2019-05-10T05:17:47.936Z,11.31
2019-05-10T05:18:47.933Z,11.44
2019-05-10T05:19:47.942Z,11.44
2019-05-10T05:20:47.945Z,11.48
2019-05-10T05:21:47.979Z,11.42
2019-05-10T05:22:47.964Z,11.36
2019-05-10T05:23:47.956Z,11.35
2019-05-10T05:24:47.972Z,11.33
2019-05-10T05:25:48.075Z,11.33
2019-05-10T05:26:47.981Z,11.28
2019-05-10T05:27:47.985Z,11.36
2019-05-10T05:28:47.992Z,11.28
2019-05-10T05:29:47.995Z,11.27
2019-05-10T05:30:48.004Z,11.26
2019-05-10T05:31:48.020Z,11.30
2019-05-10T05:32:48.020Z,11.36
2019-05-10T05:33:48.020Z,11.36
2019-05-10T05:34:48.104Z,11.41
2019-05-10T05:35:48.034Z,11.44
2019-05-10T05:36:48.049Z,11.39
2019-05-10T05:37:48.047Z,11.38
2019-05-10T05:38:49.602Z,11.39
2019-05-10T05:39:48.058Z,11.39
2019-05-10T05:40:48.073Z,11.39
2019-05-10T05:41:49.621Z,11.44
2019-05-10T05:42:48.087Z,11.41
2019-05-10T05:43:48.294Z,11.41
2019-05-10T05:44:48.091Z,11.41
2019-05-10T05:45:48.102Z,11.39
2019-05-10T05:46:48.113Z,11.31
2019-05-10T05:47:48.122Z,11.48
2019-05-10T05:48:51.313Z,11.51
2019-05-10T05:49:48.120Z,11.54
2019-05-10T05:50:48.129Z,11.48
2019-05-10T05:51:48.138Z,11.51
2019-05-10T05:52:48.148Z,11.48
2019-05-10T05:53:48.199Z,11.49
2019-05-10T05:54:53.050Z,11.56
2019-05-10T05:55:48.160Z,11.67
2019-05-10T05:56:50.693Z,11.51
2019-05-10T05:57:48.170Z,11.63
2019-05-10T05:58:48.181Z,11.62
2019-05-10T05:59:49.166Z,11.60
2019-05-10T06:00:48.194Z,11.70
2019-05-10T06:01:48.199Z,11.53
2019-05-10T06:02:48.205Z,11.66
2019-05-10T06:03:48.306Z,11.59
2019-05-10T06:04:48.213Z,11.63
2019-05-10T06:05:48.223Z,11.77
2019-05-10T06:06:48.229Z,11.69
2019-05-10T06:07:52.003Z,11.72
2019-05-10T06:08:48.244Z,11.74
2019-05-10T06:09:48.244Z,11.75
2019-05-10T06:10:56.745Z,11.78
2019-05-10T06:11:48.293Z,11.75
2019-05-10T06:12:50.517Z,11.78
2019-05-10T06:13:48.270Z,11.81
2019-05-10T06:14:49.611Z,11.85
2019-05-10T06:15:48.288Z,11.88
2019-05-10T06:16:51.163Z,11.87
2019-05-10T06:17:56.628Z,11.84
2019-05-10T06:18:48.984Z,12.00
2019-05-10T06:19:48.315Z,12.01
2019-05-10T06:20:48.312Z,12.04
2019-05-10T06:21:48.325Z,12.12
2019-05-10T06:23:05.263Z,12.12
2019-05-10T06:23:48.337Z,12.04
2019-05-10T06:24:52.488Z,12.16
2019-05-10T06:25:48.349Z,12.15
2019-05-10T06:26:48.354Z,12.16
2019-05-10T06:27:48.366Z,12.15
2019-05-10T06:28:59.636Z,12.03
2019-05-10T06:29:48.386Z,12.11
2019-05-10T06:30:48.385Z,12.04
2019-05-10T06:31:48.392Z,12.01
2019-05-10T06:32:53.405Z,12.01
2019-05-10T06:33:48.404Z,12.08
2019-05-10T06:34:48.417Z,12.05
2019-05-10T06:35:48.417Z,12.03
2019-05-10T06:36:48.420Z,12.00
2019-05-10T06:37:48.428Z,11.87
2019-05-10T06:38:48.444Z,11.87
2019-05-10T06:39:48.520Z,11.94
2019-05-10T06:40:48.458Z,11.97
2019-05-10T06:41:50.100Z,11.94
2019-05-10T06:42:48.460Z,12.07
2019-05-10T06:43:51.226Z,12.04
2019-05-10T06:44:48.476Z,12.03
2019-05-10T06:45:52.764Z,12.01
2019-05-10T06:46:48.487Z,12.05
2019-05-10T06:47:49.696Z,12.04
2019-05-10T06:48:48.501Z,12.12
2019-05-10T06:49:52.014Z,12.26
2019-05-10T06:50:48.517Z,12.26
2019-05-10T06:51:49.299Z,12.25
2019-05-10T06:52:51.850Z,12.29
2019-05-10T06:53:52.631Z,12.36
2019-05-10T06:54:48.544Z,12.44
2019-05-10T06:55:48.547Z,12.43
2019-05-10T06:56:48.564Z,12.37
2019-05-10T06:58:48.569Z,12.48
2019-05-10T06:59:48.569Z,12.49
2019-05-10T07:00:48.578Z,12.58
2019-05-10T07:01:52.027Z,12.55
2019-05-10T07:02:48.603Z,12.56
2019-05-10T07:03:48.614Z,12.48
2019-05-10T07:04:48.619Z,12.54
2019-05-10T07:05:48.625Z,12.61
2019-05-10T07:06:48.641Z,12.76
2019-05-10T07:07:48.657Z,12.91
2019-05-10T07:08:51.944Z,13.13
2019-05-10T07:10:04.150Z,13.29
2019-05-10T07:10:48.659Z,13.38
2019-05-10T07:11:48.671Z,13.36
2019-05-10T07:12:48.698Z,13.32
2019-05-10T07:13:52.756Z,13.36
2019-05-10T07:14:48.691Z,13.47
2019-05-10T07:15:48.707Z,13.57
2019-05-10T07:16:48.718Z,13.66
2019-05-10T07:17:48.720Z,13.43
2019-05-10T07:18:48.730Z,13.29
2019-05-10T07:19:53.554Z,13.22
2019-05-10T07:20:48.752Z,13.29
2019-05-10T07:21:51.270Z,13.19
2019-05-10T07:22:48.768Z,13.21
2019-05-10T07:23:48.777Z,13.13
2019-05-10T07:24:48.784Z,13.13
2019-05-10T07:25:48.796Z,13.01
2019-05-10T07:26:48.805Z,12.94
2019-05-10T07:27:50.415Z,12.94
2019-05-10T07:28:51.807Z,13.07
2019-05-10T07:29:48.827Z,12.99
2019-05-10T07:30:48.846Z,13.13
2019-05-10T07:31:48.850Z,13.38
2019-05-10T07:32:48.855Z,13.41
2019-05-10T07:33:48.863Z,13.54
2019-05-10T07:34:58.276Z,13.54
2019-05-10T07:35:48.881Z,13.65
2019-05-10T07:36:48.886Z,13.55
2019-05-10T07:37:51.894Z,13.68
2019-05-10T07:38:48.921Z,13.81
2019-05-10T07:39:48.921Z,14.01
2019-05-10T07:40:48.931Z,14.21
2019-05-10T07:41:48.943Z,14.30
2019-05-10T07:42:48.940Z,14.45
2019-05-10T07:43:48.952Z,14.30
2019-05-10T07:44:48.964Z,14.38
2019-05-10T07:45:48.973Z,14.30
2019-05-10T07:46:54.008Z,14.31
2019-05-10T07:47:49.007Z,14.16
2019-05-10T07:48:53.551Z,14.09
2019-05-10T07:49:49.015Z,13.94
2019-05-10T07:50:51.745Z,13.83
2019-05-10T07:51:49.032Z,13.80
2019-05-10T07:52:49.042Z,13.69
2019-05-10T07:53:49.048Z,13.69
2019-05-10T07:54:49.099Z,13.72
2019-05-10T07:55:49.066Z,13.75
2019-05-10T07:56:49.072Z,13.62
2019-05-10T07:57:49.080Z,13.65
2019-05-10T07:58:49.101Z,13.65
2019-05-10T07:59:51.068Z,13.62
2019-05-10T08:00:49.116Z,13.68
2019-05-10T08:01:49.332Z,13.81
2019-05-10T08:02:51.212Z,13.90
2019-05-10T08:03:52.471Z,14.09
2019-05-10T08:04:53.307Z,14.17
2019-05-10T08:05:55.105Z,14.34
2019-05-10T08:06:52.034Z,14.20
2019-05-10T08:07:49.604Z,14.09
2019-05-10T08:08:49.792Z,14.05
2019-05-10T08:09:49.198Z,13.84
2019-05-10T08:10:49.218Z,13.72
2019-05-10T08:11:53.895Z,13.47
2019-05-10T08:12:49.221Z,13.44
2019-05-10T08:13:49.240Z,13.38
2019-05-10T08:14:53.241Z,13.41
2019-05-10T08:15:49.253Z,13.41
2019-05-10T08:16:58.148Z,13.41
2019-05-10T08:17:50.937Z,13.28
2019-05-10T08:18:49.781Z,13.21
2019-05-10T08:19:49.289Z,13.10
2019-05-10T08:20:55.105Z,13.10
2019-05-10T08:21:56.426Z,13.09
2019-05-10T08:22:49.308Z,13.24
2019-05-10T08:23:49.324Z,13.21
2019-05-10T08:24:52.692Z,13.19
2019-05-10T08:25:49.334Z,13.16
2019-05-10T08:26:49.343Z,13.13
2019-05-10T08:27:55.039Z,13.14
2019-05-10T08:28:49.358Z,13.24
2019-05-10T08:29:52.844Z,13.25
2019-05-10T08:30:53.573Z,13.10
2019-05-10T08:31:53.671Z,13.09
2019-05-10T08:32:49.389Z,13.04
2019-05-10T08:33:56.091Z,13.12
2019-05-10T08:34:53.001Z,13.06
2019-05-10T08:35:52.468Z,12.87
2019-05-10T08:36:49.413Z,12.77
2019-05-10T08:37:49.426Z,12.77
2019-05-10T08:39:03.165Z,12.76
2019-05-10T08:39:53.484Z,12.77
2019-05-10T08:40:49.454Z,12.88
2019-05-10T08:42:03.612Z,12.88
2019-05-10T08:43:00.208Z,12.84
2019-05-10T08:43:49.477Z,12.94
2019-05-10T08:44:54.171Z,12.99
2019-05-10T08:45:52.269Z,12.99
2019-05-10T08:46:49.548Z,13.03
2019-05-10T08:47:52.941Z,13.09
2019-05-10T08:48:53.119Z,12.96
2019-05-10T08:50:06.089Z,12.91
2019-05-10T08:50:56.644Z,12.95
2019-05-10T08:51:52.059Z,12.94
2019-05-10T08:52:49.532Z,13.06
2019-05-10T08:53:53.609Z,13.06
2019-05-10T08:54:49.569Z,13.09
2019-05-10T08:55:49.563Z,13.14
2019-05-10T08:56:54.935Z,13.21
2019-05-10T08:57:49.580Z,13.25
2019-05-10T08:58:49.593Z,13.36
2019-05-10T08:59:54.093Z,13.36
2019-05-10T09:01:04.792Z,13.44
2019-05-10T09:01:50.866Z,13.46
2019-05-10T09:02:51.447Z,13.46
2019-05-10T09:03:55.648Z,13.57
2019-05-10T09:04:50.418Z,13.61
2019-05-10T09:05:52.238Z,13.68
2019-05-10T09:06:55.503Z,13.76
2019-05-10T09:07:51.912Z,13.76
2019-05-10T09:08:52.825Z,13.98
2019-05-10T09:09:50.235Z,13.86
2019-05-10T09:10:49.689Z,13.83
2019-05-10T09:11:52.037Z,13.83
2019-05-10T09:12:54.357Z,13.87
2019-05-10T09:13:49.722Z,13.94
2019-05-10T09:14:57.640Z,13.91
2019-05-10T09:15:54.318Z,13.94
2019-05-10T09:16:59.807Z,13.90
2019-05-10T09:17:49.749Z,13.94
2019-05-10T09:18:51.217Z,14.09
2019-05-10T09:19:51.729Z,14.12
2019-05-10T09:20:51.434Z,14.12
2019-05-10T09:21:54.312Z,14.02
2019-05-10T09:22:49.784Z,13.99
2019-05-10T09:23:52.832Z,14.06
2019-05-10T09:24:50.083Z,14.06
2019-05-10T09:25:51.898Z,14.11
2019-05-10T09:26:54.755Z,14.19
2019-05-10T09:27:49.833Z,14.19
2019-05-10T09:28:55.570Z,14.23
2019-05-10T09:29:49.851Z,14.31
2019-05-10T09:30:57.616Z,14.29
2019-05-10T09:31:51.238Z,14.35
2019-05-10T09:32:51.902Z,14.36
2019-05-10T09:33:52.005Z,14.46
2019-05-10T09:34:54.108Z,14.61
2019-05-10T09:35:52.310Z,14.35
2019-05-10T09:36:49.918Z,14.34
2019-05-10T09:37:54.082Z,14.27
2019-05-10T09:38:52.467Z,14.34
2019-05-10T09:39:54.860Z,14.46
2019-05-10T09:40:53.022Z,14.63
2019-05-10T09:41:52.477Z,14.64
2019-05-10T09:42:52.142Z,14.79
2019-05-10T09:43:50.629Z,14.94
2019-05-10T09:44:49.998Z,15.19
2019-05-10T09:45:50.115Z,15.40
2019-05-10T09:46:52.322Z,15.30
2019-05-10T09:47:50.082Z,15.31
2019-05-10T09:48:54.699Z,15.38
2019-05-10T09:49:54.040Z,15.25
2019-05-10T09:50:55.150Z,15.43
2019-05-10T09:51:50.175Z,15.46
2019-05-10T09:52:50.237Z,15.62
2019-05-10T09:53:50.227Z,15.76
2019-05-10T09:54:50.104Z,15.74
2019-05-10T09:55:55.278Z,15.58
2019-05-10T09:56:52.215Z,15.22
2019-05-10T09:57:50.163Z,15.03
2019-05-10T09:58:50.139Z,14.98
2019-05-10T09:59:50.150Z,14.98
2019-05-10T10:00:50.156Z,14.91
2019-05-10T10:01:50.155Z,14.85
2019-05-10T10:02:56.249Z,14.75
2019-05-10T10:03:50.183Z,14.87
2019-05-10T10:04:50.208Z,14.93
2019-05-10T10:05:55.366Z,14.87
2019-05-10T10:06:52.698Z,14.93
2019-05-10T10:07:50.222Z,14.97
2019-05-10T10:08:53.363Z,14.95
2019-05-10T10:09:50.237Z,14.95
2019-05-10T10:10:50.252Z,14.86
2019-05-10T10:11:58.105Z,14.80
2019-05-10T10:12:50.374Z,14.63
2019-05-10T10:13:59.014Z,14.64
2019-05-10T10:14:50.308Z,14.64
2019-05-10T10:15:52.433Z,14.48
2019-05-10T10:16:58.394Z,14.41
2019-05-10T10:17:50.329Z,14.24
2019-05-10T10:18:50.323Z,14.20
2019-05-10T10:19:50.330Z,14.21
2019-05-10T10:20:50.336Z,14.19
2019-05-10T10:21:50.357Z,14.08
2019-05-10T10:22:54.416Z,14.13
2019-05-10T10:23:50.375Z,14.21
2019-05-10T10:24:54.976Z,14.30
2019-05-10T10:25:50.389Z,14.42
2019-05-10T10:26:54.014Z,14.45
2019-05-10T10:27:50.407Z,14.54
2019-05-10T10:28:54.962Z,14.71
2019-05-10T10:29:50.425Z,14.56
2019-05-10T10:30:59.086Z,14.42
2019-05-10T10:31:55.463Z,14.49
2019-05-10T10:32:50.448Z,14.39
2019-05-10T10:33:58.023Z,14.49
2019-05-10T10:34:54.401Z,14.56
2019-05-10T10:35:50.483Z,14.57
2019-05-10T10:36:50.509Z,14.57
2019-05-10T10:37:50.501Z,14.56
2019-05-10T10:38:50.519Z,14.48
2019-05-10T10:39:54.505Z,14.49
2019-05-10T10:40:50.534Z,14.49
2019-05-10T10:41:52.169Z,14.45
2019-05-10T10:42:50.540Z,14.54
2019-05-10T10:43:50.548Z,14.54
2019-05-10T10:44:50.558Z,14.53
2019-05-10T10:45:50.597Z,14.53
2019-05-10T10:46:50.583Z,14.54
2019-05-10T10:47:50.590Z,14.46
2019-05-10T10:48:51.447Z,14.44
2019-05-10T10:49:50.609Z,14.45
2019-05-10T10:50:55.561Z,14.27
2019-05-10T10:51:50.621Z,14.24
2019-05-10T10:52:50.633Z,14.16
2019-05-10T10:53:54.296Z,14.19
2019-05-10T10:54:50.661Z,14.17
2019-05-10T10:55:54.304Z,14.21
2019-05-10T10:56:50.668Z,14.29
2019-05-10T10:57:50.672Z,14.23
2019-05-10T10:58:50.681Z,14.13
2019-05-10T10:59:50.695Z,14.06
2019-05-10T11:00:50.698Z,14.12
2019-05-10T11:02:23.343Z,14.23
2019-05-10T11:02:51.900Z,14.36
2019-05-10T11:03:50.724Z,14.46
2019-05-10T11:04:50.738Z,14.41
2019-05-10T11:05:50.761Z,14.34
2019-05-10T11:06:50.757Z,14.23
2019-05-10T11:07:51.245Z,14.17
2019-05-10T11:08:51.822Z,14.13
2019-05-10T11:09:55.913Z,14.16
2019-05-10T11:10:50.897Z,14.21
2019-05-10T11:11:51.553Z,14.09
2019-05-10T11:12:51.327Z,14.19
2019-05-10T11:14:00.521Z,14.36
2019-05-10T11:14:50.829Z,14.34
2019-05-10T11:15:51.587Z,14.42
2019-05-10T11:16:55.471Z,14.36
2019-05-10T11:17:50.844Z,14.30
2019-05-10T11:18:51.977Z,14.30
2019-05-10T11:19:50.871Z,14.17
2019-05-10T11:20:53.975Z,14.34
2019-05-10T11:21:51.386Z,14.53
2019-05-10T11:22:53.396Z,14.86
2019-05-10T11:23:50.907Z,15.11
2019-05-10T11:24:59.462Z,15.27
2019-05-10T11:25:56.281Z,15.55
2019-05-10T11:26:51.653Z,15.73
2019-05-10T11:27:53.875Z,15.77
2019-05-10T11:28:51.379Z,15.84
2019-05-10T11:29:54.609Z,15.99
2019-05-10T11:30:51.295Z,15.98
2019-05-10T11:32:11.030Z,16.17
2019-05-10T11:32:50.993Z,16.08
2019-05-10T11:33:56.069Z,15.89
2019-05-10T11:34:51.015Z,15.67
2019-05-10T11:35:51.475Z,15.23
2019-05-10T11:36:51.280Z,15.19
2019-05-10T11:37:51.054Z,15.16
2019-05-10T11:38:56.506Z,15.07
2019-05-10T11:39:51.064Z,14.93
2019-05-10T11:40:51.090Z,14.87
2019-05-10T11:41:52.795Z,14.87
2019-05-10T11:42:51.245Z,14.93
2019-05-10T11:43:51.114Z,14.95
2019-05-10T11:44:54.495Z,14.91
2019-05-10T11:45:51.528Z,14.98
2019-05-10T11:46:51.133Z,14.95
2019-05-10T11:47:57.134Z,15.03
2019-05-10T11:48:51.222Z,15.11
2019-05-10T11:49:51.160Z,15.04
2019-05-10T11:50:51.538Z,14.95
2019-05-10T11:51:54.795Z,14.85
2019-05-10T11:52:51.579Z,14.95
2019-05-10T11:53:55.375Z,15.11
2019-05-10T11:54:51.483Z,15.40
2019-05-10T11:55:51.822Z,16.06
2019-05-10T11:58:01.946Z,15.89
2019-05-10T11:58:55.366Z,16.37
2019-05-10T11:59:51.664Z,16.33
2019-05-10T12:00:56.528Z,16.34
2019-05-10T12:01:57.952Z,16.37
2019-05-10T12:03:51.303Z,16.32
2019-05-10T12:06:04.286Z,16.27
2019-05-10T12:06:51.551Z,16.22
2019-05-10T12:07:54.577Z,16.30
2019-05-10T12:10:03.101Z,16.10
2019-05-10T12:10:53.791Z,16.08
2019-05-10T12:11:52.159Z,15.99
2019-05-10T12:13:06.105Z,16.03
2019-05-10T12:13:52.955Z,16.11
2019-05-10T12:14:53.935Z,16.26
2019-05-10T12:15:52.218Z,16.65
2019-05-10T12:16:54.513Z,16.99
2019-05-10T12:17:57.962Z,17.03
2019-05-10T12:19:02.392Z,17.30
2019-05-10T12:19:56.251Z,17.35
2019-05-10T12:21:00.217Z,17.43
2019-05-10T12:21:55.580Z,17.53
2019-05-10T12:22:51.978Z,17.55
2019-05-10T12:23:55.988Z,17.58
2019-05-10T12:25:06.060Z,17.43
2019-05-10T12:26:19.144Z,16.44
2019-05-10T12:26:31.060Z,16.27
2019-05-10T12:26:35.813Z,15.92
2019-05-10T12:26:59.068Z,17.24
2019-05-10T12:27:17.312Z,17.06
2019-05-10T12:27:52.427Z,16.98
2019-05-10T12:28:51.714Z,16.85
2019-05-10T12:29:56.195Z,16.69
2019-05-10T12:30:51.612Z,16.33
2019-05-10T12:31:55.069Z,16.08
2019-05-10T12:32:56.502Z,15.93
2019-05-10T12:33:51.624Z,15.99
2019-05-10T12:34:56.353Z,15.99
2019-05-10T12:35:51.650Z,16.10
2019-05-10T12:36:52.045Z,16.13
2019-05-10T12:37:54.230Z,16.11
2019-05-10T12:38:51.700Z,16.17
2019-05-10T12:39:53.231Z,16.14
2019-05-10T12:40:51.707Z,16.01
2019-05-10T12:41:53.125Z,15.89
2019-05-10T12:42:51.723Z,15.76
2019-05-10T12:43:51.908Z,15.55
2019-05-10T12:44:55.395Z,15.48
2019-05-10T12:45:52.023Z,15.31
2019-05-10T12:46:54.292Z,15.16
2019-05-10T12:47:52.086Z,14.98
2019-05-10T12:48:51.814Z,15.05
2019-05-10T12:49:53.881Z,15.15
2019-05-10T12:50:55.152Z,15.15
2019-05-10T12:51:51.828Z,15.22
2019-05-10T12:53:03.784Z,15.33
2019-05-10T12:53:52.313Z,15.28
2019-05-10T12:54:51.862Z,15.43